sensor_id;sensor_type;location;lat;lon;timestamp;P1;durP1;ratioP1;P2;durP2;ratioP2
22650;SDS011;11492;42.646;23.400;2023-08-12T00:00:09;4.60;;;2.45;;
22650;SDS011;11492;42.646;23.400;2023-08-12T00:02:40;6.30;;;2.50;;
22650;SDS011;11492;42.646;23.400;2023-08-12T00:05:06;4.75;;;2.97;;
22650;SDS011;11492;42.646;23.400;2023-08-12T00:07:33;3.83;;;2.97;;
22650;SDS011;11492;42.646;23.400;2023-08-12T00:10:02;5.90;;;2.50;;
22650;SDS011;11492;42.646;23.400;2023-08-12T00:12:29;6.43;;;3.35;;
22650;SDS011;11492;42.646;23.400;2023-08-12T00:14:57;5.97;;;3.03;;
22650;SDS011;11492;42.646;23.400;2023-08-12T00:17:23;6.38;;;2.78;;
22650;SDS011;11492;42.646;23.400;2023-08-12T00:19:49;9.35;;;3.17;;
22650;SDS011;11492;42.646;23.400;2023-08-12T00:22:14;10.52;;;2.80;;
22650;SDS011;11492;42.646;23.400;2023-08-12T00:24:40;5.22;;;2.92;;
22650;SDS011;11492;42.646;23.400;2023-08-12T00:27:06;4.45;;;3.15;;
22650;SDS011;11492;42.646;23.400;2023-08-12T00:29:32;6.03;;;3.03;;
22650;SDS011;11492;42.646;23.400;2023-08-12T00:31:58;4.45;;;3.20;;
22650;SDS011;11492;42.646;23.400;2023-08-12T00:34:23;6.57;;;2.92;;
22650;SDS011;11492;42.646;23.400;2023-08-12T00:36:48;4.65;;;2.50;;
22650;SDS011;11492;42.646;23.400;2023-08-12T00:39:14;8.98;;;3.00;;
22650;SDS011;11492;42.646;23.400;2023-08-12T00:41:39;8.45;;;3.13;;
22650;SDS011;11492;42.646;23.400;2023-08-12T00:44:05;4.18;;;2.97;;
22650;SDS011;11492;42.646;23.400;2023-08-12T00:46:30;8.68;;;3.00;;
22650;SDS011;11492;42.646;23.400;2023-08-12T00:48:56;4.45;;;2.67;;
22650;SDS011;11492;42.646;23.400;2023-08-12T00:51:21;5.22;;;3.00;;
22650;SDS011;11492;42.646;23.400;2023-08-12T00:53:47;5.53;;;2.90;;
22650;SDS011;11492;42.646;23.400;2023-08-12T00:56:14;11.73;;;3.63;;
22650;SDS011;11492;42.646;23.400;2023-08-12T00:58:41;6.95;;;3.00;;
22650;SDS011;11492;42.646;23.400;2023-08-12T01:01:06;5.10;;;3.28;;
22650;SDS011;11492;42.646;23.400;2023-08-12T01:03:32;6.97;;;3.40;;
22650;SDS011;11492;42.646;23.400;2023-08-12T01:05:58;6.20;;;3.08;;
22650;SDS011;11492;42.646;23.400;2023-08-12T01:08:24;5.55;;;3.08;;
22650;SDS011;11492;42.646;23.400;2023-08-12T01:10:58;7.15;;;3.60;;
22650;SDS011;11492;42.646;23.400;2023-08-12T01:13:44;7.00;;;3.42;;
22650;SDS011;11492;42.646;23.400;2023-08-12T01:16:15;4.95;;;2.90;;
22650;SDS011;11492;42.646;23.400;2023-08-12T01:18:42;5.32;;;3.20;;
22650;SDS011;11492;42.646;23.400;2023-08-12T01:21:10;8.27;;;3.38;;
22650;SDS011;11492;42.646;23.400;2023-08-12T01:23:40;5.63;;;3.10;;
22650;SDS011;11492;42.646;23.400;2023-08-12T01:26:06;4.88;;;3.38;;
22650;SDS011;11492;42.646;23.400;2023-08-12T01:28:31;4.32;;;3.28;;
22650;SDS011;11492;42.646;23.400;2023-08-12T01:30:59;8.70;;;2.88;;
22650;SDS011;11492;42.646;23.400;2023-08-12T01:34:19;5.88;;;3.28;;
22650;SDS011;11492;42.646;23.400;2023-08-12T01:36:27;6.20;;;3.25;;
22650;SDS011;11492;42.646;23.400;2023-08-12T01:38:56;6.05;;;3.35;;
22650;SDS011;11492;42.646;23.400;2023-08-12T01:41:24;5.35;;;3.40;;
22650;SDS011;11492;42.646;23.400;2023-08-12T01:43:51;6.00;;;3.50;;
22650;SDS011;11492;42.646;23.400;2023-08-12T01:46:17;5.45;;;3.13;;
22650;SDS011;11492;42.646;23.400;2023-08-12T01:48:42;6.15;;;3.60;;
22650;SDS011;11492;42.646;23.400;2023-08-12T01:51:08;5.75;;;3.33;;
22650;SDS011;11492;42.646;23.400;2023-08-12T01:53:33;9.38;;;3.20;;
22650;SDS011;11492;42.646;23.400;2023-08-12T01:55:59;9.48;;;3.50;;
22650;SDS011;11492;42.646;23.400;2023-08-12T01:58:24;4.28;;;3.10;;
22650;SDS011;11492;42.646;23.400;2023-08-12T02:00:51;7.32;;;3.40;;
22650;SDS011;11492;42.646;23.400;2023-08-12T02:03:17;6.72;;;3.17;;
22650;SDS011;11492;42.646;23.400;2023-08-12T02:05:42;5.45;;;3.00;;
22650;SDS011;11492;42.646;23.400;2023-08-12T02:08:08;7.50;;;3.55;;
22650;SDS011;11492;42.646;23.400;2023-08-12T02:10:34;4.97;;;2.97;;
22650;SDS011;11492;42.646;23.400;2023-08-12T02:12:59;5.35;;;3.00;;
22650;SDS011;11492;42.646;23.400;2023-08-12T02:15:25;6.07;;;3.10;;
22650;SDS011;11492;42.646;23.400;2023-08-12T02:17:50;5.93;;;3.20;;
22650;SDS011;11492;42.646;23.400;2023-08-12T02:20:16;8.93;;;3.30;;
22650;SDS011;11492;42.646;23.400;2023-08-12T02:22:41;6.45;;;3.45;;
22650;SDS011;11492;42.646;23.400;2023-08-12T02:25:07;7.70;;;3.30;;
22650;SDS011;11492;42.646;23.400;2023-08-12T02:27:33;6.35;;;3.13;;
22650;SDS011;11492;42.646;23.400;2023-08-12T02:29:58;5.75;;;3.50;;
22650;SDS011;11492;42.646;23.400;2023-08-12T02:32:23;7.07;;;3.60;;
22650;SDS011;11492;42.646;23.400;2023-08-12T02:34:49;9.98;;;3.67;;
22650;SDS011;11492;42.646;23.400;2023-08-12T02:37:14;9.30;;;3.45;;
22650;SDS011;11492;42.646;23.400;2023-08-12T02:39:40;4.10;;;2.95;;
22650;SDS011;11492;42.646;23.400;2023-08-12T02:42:05;7.45;;;3.30;;
22650;SDS011;11492;42.646;23.400;2023-08-12T02:44:30;8.18;;;3.50;;
22650;SDS011;11492;42.646;23.400;2023-08-12T02:46:56;5.15;;;3.20;;
22650;SDS011;11492;42.646;23.400;2023-08-12T02:49:21;6.18;;;3.45;;
22650;SDS011;11492;42.646;23.400;2023-08-12T02:51:47;6.32;;;3.40;;
22650;SDS011;11492;42.646;23.400;2023-08-12T02:54:12;4.25;;;3.35;;
22650;SDS011;11492;42.646;23.400;2023-08-12T02:56:37;7.65;;;3.33;;
22650;SDS011;11492;42.646;23.400;2023-08-12T02:59:03;6.38;;;3.63;;
22650;SDS011;11492;42.646;23.400;2023-08-12T03:01:30;13.23;;;3.60;;
22650;SDS011;11492;42.646;23.400;2023-08-12T03:03:55;7.65;;;3.45;;
22650;SDS011;11492;42.646;23.400;2023-08-12T03:06:21;8.38;;;3.35;;
22650;SDS011;11492;42.646;23.400;2023-08-12T03:08:46;7.70;;;3.10;;
22650;SDS011;11492;42.646;23.400;2023-08-12T03:11:12;6.10;;;3.70;;
22650;SDS011;11492;42.646;23.400;2023-08-12T03:13:37;7.40;;;3.70;;
22650;SDS011;11492;42.646;23.400;2023-08-12T03:16:02;7.40;;;3.80;;
22650;SDS011;11492;42.646;23.400;2023-08-12T03:18:28;8.57;;;3.25;;
22650;SDS011;11492;42.646;23.400;2023-08-12T03:20:53;10.18;;;3.60;;
22650;SDS011;11492;42.646;23.400;2023-08-12T03:23:19;9.88;;;3.63;;
22650;SDS011;11492;42.646;23.400;2023-08-12T03:25:46;6.97;;;3.33;;
22650;SDS011;11492;42.646;23.400;2023-08-12T03:28:12;13.25;;;3.05;;
22650;SDS011;11492;42.646;23.400;2023-08-12T03:30:37;5.05;;;3.38;;
22650;SDS011;11492;42.646;23.400;2023-08-12T03:33:03;7.00;;;4.00;;
22650;SDS011;11492;42.646;23.400;2023-08-12T03:35:29;6.88;;;3.55;;
22650;SDS011;11492;42.646;23.400;2023-08-12T03:37:54;4.60;;;3.20;;
22650;SDS011;11492;42.646;23.400;2023-08-12T03:40:19;13.20;;;3.72;;
22650;SDS011;11492;42.646;23.400;2023-08-12T03:42:45;12.63;;;3.22;;
22650;SDS011;11492;42.646;23.400;2023-08-12T03:45:10;10.93;;;4.20;;
22650;SDS011;11492;42.646;23.400;2023-08-12T03:47:35;4.20;;;3.10;;
22650;SDS011;11492;42.646;23.400;2023-08-12T03:50:01;6.05;;;3.22;;
22650;SDS011;11492;42.646;23.400;2023-08-12T03:52:26;5.68;;;3.53;;
22650;SDS011;11492;42.646;23.400;2023-08-12T03:54:52;9.77;;;3.47;;
22650;SDS011;11492;42.646;23.400;2023-08-12T03:57:18;8.88;;;3.50;;
22650;SDS011;11492;42.646;23.400;2023-08-12T03:59:43;11.98;;;3.67;;
22650;SDS011;11492;42.646;23.400;2023-08-12T04:02:09;7.05;;;3.70;;
22650;SDS011;11492;42.646;23.400;2023-08-12T04:04:34;6.38;;;3.80;;
22650;SDS011;11492;42.646;23.400;2023-08-12T04:07:00;7.43;;;3.88;;
22650;SDS011;11492;42.646;23.400;2023-08-12T04:09:25;5.65;;;3.53;;
22650;SDS011;11492;42.646;23.400;2023-08-12T04:11:50;6.32;;;3.40;;
22650;SDS011;11492;42.646;23.400;2023-08-12T04:14:16;6.95;;;3.42;;
22650;SDS011;11492;42.646;23.400;2023-08-12T04:16:41;10.90;;;4.22;;
22650;SDS011;11492;42.646;23.400;2023-08-12T04:19:07;6.45;;;3.33;;
22650;SDS011;11492;42.646;23.400;2023-08-12T04:21:32;6.68;;;4.10;;
22650;SDS011;11492;42.646;23.400;2023-08-12T04:23:58;6.25;;;3.65;;
22650;SDS011;11492;42.646;23.400;2023-08-12T04:26:23;7.65;;;3.88;;
22650;SDS011;11492;42.646;23.400;2023-08-12T04:28:48;6.97;;;3.20;;
22650;SDS011;11492;42.646;23.400;2023-08-12T04:31:14;7.75;;;3.20;;
22650;SDS011;11492;42.646;23.400;2023-08-12T04:33:39;11.73;;;3.83;;
22650;SDS011;11492;42.646;23.400;2023-08-12T04:36:05;7.50;;;3.53;;
22650;SDS011;11492;42.646;23.400;2023-08-12T04:38:30;8.98;;;3.33;;
22650;SDS011;11492;42.646;23.400;2023-08-12T04:40:56;8.30;;;3.33;;
22650;SDS011;11492;42.646;23.400;2023-08-12T04:43:22;10.32;;;3.40;;
22650;SDS011;11492;42.646;23.400;2023-08-12T04:45:47;7.13;;;3.22;;
22650;SDS011;11492;42.646;23.400;2023-08-12T04:48:13;10.35;;;3.42;;
22650;SDS011;11492;42.646;23.400;2023-08-12T04:50:41;9.88;;;3.25;;
22650;SDS011;11492;42.646;23.400;2023-08-12T04:53:07;7.80;;;3.70;;
22650;SDS011;11492;42.646;23.400;2023-08-12T04:55:33;10.68;;;3.53;;
22650;SDS011;11492;42.646;23.400;2023-08-12T04:57:59;14.23;;;3.75;;
22650;SDS011;11492;42.646;23.400;2023-08-12T05:00:25;10.23;;;3.95;;
22650;SDS011;11492;42.646;23.400;2023-08-12T05:02:50;5.03;;;3.05;;
22650;SDS011;11492;42.646;23.400;2023-08-12T05:05:15;4.63;;;3.20;;
22650;SDS011;11492;42.646;23.400;2023-08-12T05:07:41;8.02;;;3.83;;
22650;SDS011;11492;42.646;23.400;2023-08-12T05:10:06;12.93;;;4.10;;
22650;SDS011;11492;42.646;23.400;2023-08-12T05:12:32;14.38;;;5.13;;
22650;SDS011;11492;42.646;23.400;2023-08-12T05:14:57;17.50;;;5.15;;
22650;SDS011;11492;42.646;23.400;2023-08-12T05:17:23;11.88;;;4.60;;
22650;SDS011;11492;42.646;23.400;2023-08-12T05:19:48;14.52;;;5.10;;
22650;SDS011;11492;42.646;23.400;2023-08-12T05:22:14;12.48;;;4.72;;
22650;SDS011;11492;42.646;23.400;2023-08-12T05:24:40;13.68;;;4.65;;
22650;SDS011;11492;42.646;23.400;2023-08-12T05:27:05;12.23;;;4.93;;
22650;SDS011;11492;42.646;23.400;2023-08-12T05:29:31;15.02;;;4.57;;
22650;SDS011;11492;42.646;23.400;2023-08-12T05:31:56;14.93;;;4.60;;
22650;SDS011;11492;42.646;23.400;2023-08-12T05:34:22;24.63;;;5.80;;
22650;SDS011;11492;42.646;23.400;2023-08-12T05:36:47;12.05;;;4.60;;
22650;SDS011;11492;42.646;23.400;2023-08-12T05:39:13;14.65;;;4.57;;
22650;SDS011;11492;42.646;23.400;2023-08-12T05:41:38;12.60;;;5.35;;
22650;SDS011;11492;42.646;23.400;2023-08-12T05:44:03;13.52;;;4.35;;
22650;SDS011;11492;42.646;23.400;2023-08-12T05:46:29;13.93;;;5.25;;
22650;SDS011;11492;42.646;23.400;2023-08-12T05:48:55;15.93;;;5.38;;
22650;SDS011;11492;42.646;23.400;2023-08-12T05:51:20;20.13;;;4.85;;
22650;SDS011;11492;42.646;23.400;2023-08-12T05:53:45;9.73;;;3.90;;
22650;SDS011;11492;42.646;23.400;2023-08-12T05:56:11;8.35;;;3.70;;
22650;SDS011;11492;42.646;23.400;2023-08-12T05:58:36;6.47;;;3.30;;
22650;SDS011;11492;42.646;23.400;2023-08-12T06:01:02;12.73;;;3.88;;
22650;SDS011;11492;42.646;23.400;2023-08-12T06:03:27;12.50;;;3.70;;
22650;SDS011;11492;42.646;23.400;2023-08-12T06:05:53;10.82;;;4.28;;
22650;SDS011;11492;42.646;23.400;2023-08-12T06:08:18;6.10;;;3.55;;
22650;SDS011;11492;42.646;23.400;2023-08-12T06:10:44;6.63;;;3.63;;
22650;SDS011;11492;42.646;23.400;2023-08-12T06:13:09;5.93;;;2.85;;
22650;SDS011;11492;42.646;23.400;2023-08-12T06:15:35;8.90;;;3.00;;
22650;SDS011;11492;42.646;23.400;2023-08-12T06:18:01;7.20;;;2.97;;
22650;SDS011;11492;42.646;23.400;2023-08-12T06:20:26;10.55;;;3.45;;
22650;SDS011;11492;42.646;23.400;2023-08-12T06:22:52;5.30;;;2.70;;
22650;SDS011;11492;42.646;23.400;2023-08-12T06:25:18;5.68;;;2.83;;
22650;SDS011;11492;42.646;23.400;2023-08-12T06:27:44;7.00;;;2.80;;
22650;SDS011;11492;42.646;23.400;2023-08-12T06:30:10;4.47;;;2.58;;
22650;SDS011;11492;42.646;23.400;2023-08-12T06:32:37;8.07;;;2.70;;
22650;SDS011;11492;42.646;23.400;2023-08-12T06:35:02;6.95;;;2.80;;
22650;SDS011;11492;42.646;23.400;2023-08-12T06:37:28;4.28;;;2.45;;
22650;SDS011;11492;42.646;23.400;2023-08-12T06:39:54;6.63;;;3.00;;
22650;SDS011;11492;42.646;23.400;2023-08-12T06:42:20;5.43;;;2.83;;
22650;SDS011;11492;42.646;23.400;2023-08-12T06:44:46;6.65;;;2.65;;
22650;SDS011;11492;42.646;23.400;2023-08-12T06:47:11;6.25;;;2.85;;
22650;SDS011;11492;42.646;23.400;2023-08-12T06:49:36;4.90;;;2.63;;
22650;SDS011;11492;42.646;23.400;2023-08-12T06:52:02;8.85;;;3.03;;
22650;SDS011;11492;42.646;23.400;2023-08-12T06:54:27;8.25;;;3.03;;
22650;SDS011;11492;42.646;23.400;2023-08-12T06:56:53;5.82;;;2.58;;
22650;SDS011;11492;42.646;23.400;2023-08-12T06:59:18;8.38;;;2.75;;
22650;SDS011;11492;42.646;23.400;2023-08-12T07:01:44;5.65;;;2.50;;
22650;SDS011;11492;42.646;23.400;2023-08-12T07:04:09;6.88;;;2.70;;
22650;SDS011;11492;42.646;23.400;2023-08-12T07:06:35;10.15;;;2.92;;
22650;SDS011;11492;42.646;23.400;2023-08-12T07:09:00;8.30;;;2.92;;
22650;SDS011;11492;42.646;23.400;2023-08-12T07:11:25;5.72;;;2.90;;
22650;SDS011;11492;42.646;23.400;2023-08-12T07:13:51;4.97;;;2.90;;
22650;SDS011;11492;42.646;23.400;2023-08-12T07:16:16;7.22;;;2.80;;
22650;SDS011;11492;42.646;23.400;2023-08-12T07:18:42;5.28;;;2.72;;
22650;SDS011;11492;42.646;23.400;2023-08-12T07:21:07;12.50;;;3.35;;
22650;SDS011;11492;42.646;23.400;2023-08-12T07:23:33;9.85;;;3.03;;
22650;SDS011;11492;42.646;23.400;2023-08-12T07:25:58;5.55;;;2.78;;
22650;SDS011;11492;42.646;23.400;2023-08-12T07:28:24;8.27;;;3.17;;
22650;SDS011;11492;42.646;23.400;2023-08-12T07:30:49;5.80;;;2.78;;
22650;SDS011;11492;42.646;23.400;2023-08-12T07:33:15;5.57;;;3.10;;
22650;SDS011;11492;42.646;23.400;2023-08-12T07:35:41;6.68;;;3.00;;
22650;SDS011;11492;42.646;23.400;2023-08-12T07:38:06;11.32;;;3.28;;
22650;SDS011;11492;42.646;23.400;2023-08-12T07:40:32;6.80;;;3.30;;
22650;SDS011;11492;42.646;23.400;2023-08-12T07:42:58;5.50;;;2.70;;
22650;SDS011;11492;42.646;23.400;2023-08-12T07:45:23;7.50;;;3.00;;
22650;SDS011;11492;42.646;23.400;2023-08-12T07:47:49;11.32;;;3.25;;
22650;SDS011;11492;42.646;23.400;2023-08-12T07:50:15;4.93;;;3.20;;
22650;SDS011;11492;42.646;23.400;2023-08-12T07:52:41;5.60;;;3.00;;
22650;SDS011;11492;42.646;23.400;2023-08-12T07:55:06;4.75;;;2.88;;
22650;SDS011;11492;42.646;23.400;2023-08-12T07:57:32;5.93;;;3.10;;
22650;SDS011;11492;42.646;23.400;2023-08-12T07:59:57;5.03;;;2.80;;
22650;SDS011;11492;42.646;23.400;2023-08-12T08:02:23;6.30;;;2.70;;
22650;SDS011;11492;42.646;23.400;2023-08-12T08:04:49;7.63;;;2.60;;
22650;SDS011;11492;42.646;23.400;2023-08-12T08:07:15;6.53;;;2.90;;
22650;SDS011;11492;42.646;23.400;2023-08-12T08:09:41;7.22;;;3.00;;
22650;SDS011;11492;42.646;23.400;2023-08-12T08:12:08;5.68;;;3.17;;
22650;SDS011;11492;42.646;23.400;2023-08-12T08:14:34;7.60;;;2.90;;
22650;SDS011;11492;42.646;23.400;2023-08-12T08:16:59;6.55;;;3.08;;
22650;SDS011;11492;42.646;23.400;2023-08-12T08:19:25;8.75;;;2.67;;
22650;SDS011;11492;42.646;23.400;2023-08-12T08:21:50;7.18;;;2.88;;
22650;SDS011;11492;42.646;23.400;2023-08-12T08:24:15;8.63;;;3.10;;
22650;SDS011;11492;42.646;23.400;2023-08-12T08:26:41;8.15;;;3.00;;
22650;SDS011;11492;42.646;23.400;2023-08-12T08:29:06;7.22;;;2.78;;
22650;SDS011;11492;42.646;23.400;2023-08-12T08:31:32;3.60;;;2.50;;
22650;SDS011;11492;42.646;23.400;2023-08-12T08:33:57;4.85;;;2.50;;
22650;SDS011;11492;42.646;23.400;2023-08-12T08:36:23;6.60;;;2.58;;
22650;SDS011;11492;42.646;23.400;2023-08-12T08:38:49;8.60;;;2.38;;
22650;SDS011;11492;42.646;23.400;2023-08-12T08:41:16;6.63;;;2.35;;
22650;SDS011;11492;42.646;23.400;2023-08-12T08:43:42;3.75;;;2.10;;
22650;SDS011;11492;42.646;23.400;2023-08-12T08:46:13;5.88;;;2.78;;
22650;SDS011;11492;42.646;23.400;2023-08-12T08:48:40;4.22;;;2.50;;
22650;SDS011;11492;42.646;23.400;2023-08-12T08:51:12;4.40;;;2.72;;
22650;SDS011;11492;42.646;23.400;2023-08-12T08:53:38;10.48;;;2.10;;
22650;SDS011;11492;42.646;23.400;2023-08-12T08:56:05;3.10;;;2.20;;
22650;SDS011;11492;42.646;23.400;2023-08-12T08:58:31;5.93;;;2.28;;
22650;SDS011;11492;42.646;23.400;2023-08-12T09:00:57;8.63;;;2.55;;
22650;SDS011;11492;42.646;23.400;2023-08-12T09:03:23;7.05;;;2.50;;
22650;SDS011;11492;42.646;23.400;2023-08-12T09:05:50;6.45;;;2.35;;
22650;SDS011;11492;42.646;23.400;2023-08-12T09:08:17;9.55;;;2.70;;
22650;SDS011;11492;42.646;23.400;2023-08-12T09:10:43;9.82;;;2.70;;
22650;SDS011;11492;42.646;23.400;2023-08-12T09:13:11;9.98;;;2.70;;
22650;SDS011;11492;42.646;23.400;2023-08-12T09:15:36;4.00;;;2.40;;
22650;SDS011;11492;42.646;23.400;2023-08-12T09:18:04;5.75;;;2.15;;
22650;SDS011;11492;42.646;23.400;2023-08-12T09:20:30;5.50;;;2.78;;
22650;SDS011;11492;42.646;23.400;2023-08-12T09:22:56;9.05;;;2.35;;
22650;SDS011;11492;42.646;23.400;2023-08-12T09:25:23;3.70;;;2.20;;
22650;SDS011;11492;42.646;23.400;2023-08-12T09:27:48;6.22;;;2.25;;
22650;SDS011;11492;42.646;23.400;2023-08-12T09:30:14;2.90;;;2.00;;
22650;SDS011;11492;42.646;23.400;2023-08-12T09:32:39;8.85;;;2.13;;
22650;SDS011;11492;42.646;23.400;2023-08-12T09:35:05;5.05;;;2.10;;
22650;SDS011;11492;42.646;23.400;2023-08-12T09:37:41;6.28;;;2.20;;
22650;SDS011;11492;42.646;23.400;2023-08-12T09:40:06;4.40;;;2.33;;
22650;SDS011;11492;42.646;23.400;2023-08-12T09:42:33;8.68;;;2.20;;
22650;SDS011;11492;42.646;23.400;2023-08-12T09:44:59;6.85;;;2.67;;
22650;SDS011;11492;42.646;23.400;2023-08-12T09:47:25;4.43;;;2.40;;
22650;SDS011;11492;42.646;23.400;2023-08-12T09:49:52;4.53;;;1.90;;
22650;SDS011;11492;42.646;23.400;2023-08-12T09:52:17;8.07;;;2.10;;
22650;SDS011;11492;42.646;23.400;2023-08-12T09:54:43;4.18;;;2.28;;
22650;SDS011;11492;42.646;23.400;2023-08-12T09:57:09;7.38;;;2.20;;
22650;SDS011;11492;42.646;23.400;2023-08-12T09:59:37;4.80;;;2.22;;
22650;SDS011;11492;42.646;23.400;2023-08-12T10:02:03;3.03;;;1.90;;
22650;SDS011;11492;42.646;23.400;2023-08-12T10:04:35;4.88;;;1.90;;
22650;SDS011;11492;42.646;23.400;2023-08-12T10:07:06;5.97;;;2.13;;
22650;SDS011;11492;42.646;23.400;2023-08-12T10:09:35;4.00;;;1.83;;
22650;SDS011;11492;42.646;23.400;2023-08-12T10:12:08;4.43;;;2.08;;
22650;SDS011;11492;42.646;23.400;2023-08-12T10:14:35;6.45;;;1.80;;
22650;SDS011;11492;42.646;23.400;2023-08-12T10:17:01;7.05;;;2.20;;
22650;SDS011;11492;42.646;23.400;2023-08-12T10:19:28;3.95;;;2.10;;
22650;SDS011;11492;42.646;23.400;2023-08-12T10:21:56;3.92;;;2.00;;
22650;SDS011;11492;42.646;23.400;2023-08-12T10:24:24;4.45;;;1.90;;
22650;SDS011;11492;42.646;23.400;2023-08-12T10:26:55;4.53;;;2.40;;
22650;SDS011;11492;42.646;23.400;2023-08-12T10:29:24;4.85;;;1.88;;
22650;SDS011;11492;42.646;23.400;2023-08-12T10:31:50;4.30;;;1.92;;
22650;SDS011;11492;42.646;23.400;2023-08-12T10:34:24;7.82;;;2.20;;
22650;SDS011;11492;42.646;23.400;2023-08-12T10:36:54;7.85;;;1.77;;
22650;SDS011;11492;42.646;23.400;2023-08-12T10:39:27;7.03;;;2.35;;
22650;SDS011;11492;42.646;23.400;2023-08-12T10:41:56;3.40;;;2.00;;
22650;SDS011;11492;42.646;23.400;2023-08-12T10:44:21;2.83;;;1.98;;
22650;SDS011;11492;42.646;23.400;2023-08-12T10:46:52;5.53;;;1.80;;
22650;SDS011;11492;42.646;23.400;2023-08-12T10:49:19;8.20;;;1.95;;
22650;SDS011;11492;42.646;23.400;2023-08-12T10:54:20;3.60;;;2.00;;
22650;SDS011;11492;42.646;23.400;2023-08-12T11:02:28;7.88;;;1.80;;
22650;SDS011;11492;42.646;23.400;2023-08-12T11:05:06;4.32;;;1.88;;
22650;SDS011;11492;42.646;23.400;2023-08-12T11:07:37;3.45;;;1.73;;
22650;SDS011;11492;42.646;23.400;2023-08-12T11:12:35;2.20;;;1.73;;
22650;SDS011;11492;42.646;23.400;2023-08-12T11:15:02;5.40;;;1.80;;
22650;SDS011;11492;42.646;23.400;2023-08-12T11:17:41;3.10;;;1.52;;
22650;SDS011;11492;42.646;23.400;2023-08-12T11:20:11;3.88;;;2.10;;
22650;SDS011;11492;42.646;23.400;2023-08-12T11:22:39;4.50;;;1.55;;
22650;SDS011;11492;42.646;23.400;2023-08-12T11:25:08;3.25;;;1.55;;
22650;SDS011;11492;42.646;23.400;2023-08-12T11:27:39;3.72;;;1.70;;
22650;SDS011;11492;42.646;23.400;2023-08-12T11:30:06;3.15;;;1.45;;
22650;SDS011;11492;42.646;23.400;2023-08-12T11:32:32;2.00;;;1.50;;
22650;SDS011;11492;42.646;23.400;2023-08-12T11:35:00;2.83;;;1.50;;
22650;SDS011;11492;42.646;23.400;2023-08-12T11:37:29;2.30;;;1.30;;
22650;SDS011;11492;42.646;23.400;2023-08-12T11:39:55;3.22;;;1.63;;
22650;SDS011;11492;42.646;23.400;2023-08-12T11:42:20;3.20;;;1.25;;
22650;SDS011;11492;42.646;23.400;2023-08-12T11:44:46;2.13;;;1.30;;
22650;SDS011;11492;42.646;23.400;2023-08-12T11:47:11;3.72;;;1.20;;
22650;SDS011;11492;42.646;23.400;2023-08-12T11:49:36;3.85;;;1.13;;
22650;SDS011;11492;42.646;23.400;2023-08-12T11:52:02;1.40;;;1.10;;
22650;SDS011;11492;42.646;23.400;2023-08-12T11:54:28;2.72;;;1.30;;
22650;SDS011;11492;42.646;23.400;2023-08-12T11:56:54;3.72;;;1.20;;
22650;SDS011;11492;42.646;23.400;2023-08-12T11:59:21;2.22;;;1.30;;
22650;SDS011;11492;42.646;23.400;2023-08-12T12:01:51;3.55;;;1.60;;
22650;SDS011;11492;42.646;23.400;2023-08-12T12:04:17;3.28;;;1.10;;
22650;SDS011;11492;42.646;23.400;2023-08-12T12:06:45;2.97;;;1.20;;
22650;SDS011;11492;42.646;23.400;2023-08-12T12:09:12;0.98;;;0.90;;
22650;SDS011;11492;42.646;23.400;2023-08-12T12:11:38;1.52;;;1.10;;
22650;SDS011;11492;42.646;23.400;2023-08-12T12:14:06;2.30;;;1.50;;
22650;SDS011;11492;42.646;23.400;2023-08-12T12:16:51;2.17;;;1.33;;
22650;SDS011;11492;42.646;23.400;2023-08-12T12:19:20;2.33;;;1.38;;
22650;SDS011;11492;42.646;23.400;2023-08-12T12:21:51;2.95;;;1.42;;
22650;SDS011;11492;42.646;23.400;2023-08-12T12:24:18;2.55;;;1.40;;
22650;SDS011;11492;42.646;23.400;2023-08-12T12:26:44;4.15;;;1.73;;
22650;SDS011;11492;42.646;23.400;2023-08-12T12:29:12;2.83;;;1.40;;
22650;SDS011;11492;42.646;23.400;2023-08-12T12:31:38;2.42;;;1.52;;
22650;SDS011;11492;42.646;23.400;2023-08-12T12:34:05;3.15;;;1.50;;
22650;SDS011;11492;42.646;23.400;2023-08-12T12:36:31;3.70;;;1.58;;
22650;SDS011;11492;42.646;23.400;2023-08-12T12:38:59;2.00;;;1.40;;
22650;SDS011;11492;42.646;23.400;2023-08-12T12:41:24;2.75;;;1.63;;
22650;SDS011;11492;42.646;23.400;2023-08-12T12:43:50;10.07;;;1.63;;
22650;SDS011;11492;42.646;23.400;2023-08-12T12:46:15;2.50;;;1.50;;
22650;SDS011;11492;42.646;23.400;2023-08-12T12:48:45;2.28;;;1.30;;
22650;SDS011;11492;42.646;23.400;2023-08-12T12:51:11;2.75;;;1.75;;
22650;SDS011;11492;42.646;23.400;2023-08-12T12:53:37;2.67;;;1.70;;
22650;SDS011;11492;42.646;23.400;2023-08-12T12:56:03;6.07;;;1.70;;
22650;SDS011;11492;42.646;23.400;2023-08-12T12:58:35;6.78;;;1.50;;
22650;SDS011;11492;42.646;23.400;2023-08-12T13:01:02;2.13;;;1.40;;
22650;SDS011;11492;42.646;23.400;2023-08-12T13:03:31;2.33;;;1.50;;
22650;SDS011;11492;42.646;23.400;2023-08-12T13:05:57;2.38;;;1.77;;
22650;SDS011;11492;42.646;23.400;2023-08-12T13:08:23;3.05;;;1.88;;
22650;SDS011;11492;42.646;23.400;2023-08-12T13:10:49;2.20;;;1.80;;
22650;SDS011;11492;42.646;23.400;2023-08-12T13:13:15;3.83;;;1.83;;
22650;SDS011;11492;42.646;23.400;2023-08-12T13:15:42;5.28;;;1.73;;
22650;SDS011;11492;42.646;23.400;2023-08-12T13:18:08;4.28;;;1.58;;
22650;SDS011;11492;42.646;23.400;2023-08-12T13:20:34;4.60;;;1.92;;
22650;SDS011;11492;42.646;23.400;2023-08-12T13:22:59;4.93;;;1.52;;
22650;SDS011;11492;42.646;23.400;2023-08-12T13:25:25;3.45;;;1.70;;
22650;SDS011;11492;42.646;23.400;2023-08-12T13:27:50;5.18;;;2.83;;
22650;SDS011;11492;42.646;23.400;2023-08-12T13:30:16;4.97;;;2.13;;
22650;SDS011;11492;42.646;23.400;2023-08-12T13:32:41;3.58;;;1.98;;
22650;SDS011;11492;42.646;23.400;2023-08-12T13:35:07;3.25;;;1.40;;
22650;SDS011;11492;42.646;23.400;2023-08-12T13:37:32;3.97;;;2.13;;
22650;SDS011;11492;42.646;23.400;2023-08-12T13:39:58;7.28;;;2.25;;
22650;SDS011;11492;42.646;23.400;2023-08-12T13:42:23;5.13;;;1.80;;
22650;SDS011;11492;42.646;23.400;2023-08-12T13:44:49;5.72;;;2.15;;
22650;SDS011;11492;42.646;23.400;2023-08-12T13:47:14;5.50;;;1.73;;
22650;SDS011;11492;42.646;23.400;2023-08-12T13:49:40;7.43;;;2.38;;
22650;SDS011;11492;42.646;23.400;2023-08-12T13:52:05;2.38;;;1.60;;
22650;SDS011;11492;42.646;23.400;2023-08-12T13:54:31;2.05;;;1.52;;
22650;SDS011;11492;42.646;23.400;2023-08-12T13:56:56;5.68;;;3.20;;
22650;SDS011;11492;42.646;23.400;2023-08-12T13:59:21;5.82;;;2.10;;
22650;SDS011;11492;42.646;23.400;2023-08-12T14:01:47;3.10;;;1.80;;
22650;SDS011;11492;42.646;23.400;2023-08-12T14:04:12;3.67;;;2.10;;
22650;SDS011;11492;42.646;23.400;2023-08-12T14:06:38;6.80;;;1.70;;
22650;SDS011;11492;42.646;23.400;2023-08-12T14:09:05;4.30;;;2.00;;
22650;SDS011;11492;42.646;23.400;2023-08-12T14:11:32;3.15;;;2.08;;
22650;SDS011;11492;42.646;23.400;2023-08-12T14:13:58;4.72;;;1.80;;
22650;SDS011;11492;42.646;23.400;2023-08-12T14:16:24;3.35;;;1.73;;
22650;SDS011;11492;42.646;23.400;2023-08-12T14:18:49;6.65;;;1.73;;
22650;SDS011;11492;42.646;23.400;2023-08-12T14:21:14;3.15;;;1.60;;
22650;SDS011;11492;42.646;23.400;2023-08-12T14:23:40;3.40;;;1.75;;
22650;SDS011;11492;42.646;23.400;2023-08-12T14:26:05;3.05;;;1.80;;
22650;SDS011;11492;42.646;23.400;2023-08-12T14:28:31;7.85;;;1.70;;
22650;SDS011;11492;42.646;23.400;2023-08-12T14:30:56;4.72;;;1.83;;
22650;SDS011;11492;42.646;23.400;2023-08-12T14:33:22;3.55;;;1.98;;
22650;SDS011;11492;42.646;23.400;2023-08-12T14:35:49;3.58;;;1.67;;
22650;SDS011;11492;42.646;23.400;2023-08-12T14:38:16;2.55;;;1.60;;